sensor_id;sensor_type;location;lat;lon;timestamp;pressure;altitude;pressure_sealevel;temperature;humidity
71774;BME280;59607;52.130;5.430;2023-06-22T00:01:34;102032.34;;;19.18;95.01
71774;BME280;59607;52.130;5.430;2023-06-22T00:04:01;102020.06;;;19.17;95.29
71774;BME280;59607;52.130;5.430;2023-06-22T00:06:33;102030.69;;;19.17;94.84
71774;BME280;59607;52.130;5.430;2023-06-22T00:09:01;102035.22;;;19.17;94.66
71774;BME280;59607;52.130;5.430;2023-06-22T00:11:30;102031.81;;;19.08;94.11
71774;BME280;59607;52.130;5.430;2023-06-22T00:13:59;102035.03;;;19.03;95.81
71774;BME280;59607;52.130;5.430;2023-06-22T00:16:26;102034.41;;;19.01;95.12
71774;BME280;59607;52.130;5.430;2023-06-22T00:18:59;102028.22;;;18.94;94.50
71774;BME280;59607;52.130;5.430;2023-06-22T00:21:33;102026.13;;;18.89;96.25
71774;BME280;59607;52.130;5.430;2023-06-22T00:24:03;102030.63;;;18.89;95.54
71774;BME280;59607;52.130;5.430;2023-06-22T00:26:30;102023.41;;;18.82;96.25
71774;BME280;59607;52.130;5.430;2023-06-22T00:28:59;102025.78;;;18.77;97.42
71774;BME280;59607;52.130;5.430;2023-06-22T00:31:28;102020.66;;;18.75;97.74
71774;BME280;59607;52.130;5.430;2023-06-22T00:33:54;102023.13;;;18.77;98.43
71774;BME280;59607;52.130;5.430;2023-06-22T00:36:26;102012.31;;;18.79;98.76
71774;BME280;59607;52.130;5.430;2023-06-22T00:38:53;102017.03;;;18.77;98.84
71774;BME280;59607;52.130;5.430;2023-06-22T00:41:21;102008.41;;;18.74;99.12
71774;BME280;59607;52.130;5.430;2023-06-22T00:43:53;102007.56;;;18.74;99.36
71774;BME280;59607;52.130;5.430;2023-06-22T00:46:22;102010.41;;;18.72;99.50
71774;BME280;59607;52.130;5.430;2023-06-22T00:48:54;102005.66;;;18.68;99.45
71774;BME280;59607;52.130;5.430;2023-06-22T00:51:23;102001.38;;;18.67;98.86
71774;BME280;59607;52.130;5.430;2023-06-22T00:53:58;102004.75;;;18.60;99.73
71774;BME280;59607;52.130;5.430;2023-06-22T00:56:25;102010.91;;;18.61;100.00
71774;BME280;59607;52.130;5.430;2023-06-22T00:58:58;102011.28;;;18.58;99.83
71774;BME280;59607;52.130;5.430;2023-06-22T01:01:32;102010.03;;;18.54;100.00
71774;BME280;59607;52.130;5.430;2023-06-22T01:04:07;101998.31;;;18.48;100.00
71774;BME280;59607;52.130;5.430;2023-06-22T01:07:15;101998.69;;;18.45;100.00
71774;BME280;59607;52.130;5.430;2023-06-22T01:10:18;101999.34;;;18.32;100.00
71774;BME280;59607;52.130;5.430;2023-06-22T01:12:56;102013.38;;;18.25;100.00
71774;BME280;59607;52.130;5.430;2023-06-22T01:15:32;102013.81;;;18.29;100.00
71774;BME280;59607;52.130;5.430;2023-06-22T01:18:07;102022.16;;;18.26;100.00
71774;BME280;59607;52.130;5.430;2023-06-22T01:20:41;102023.16;;;18.25;100.00
71774;BME280;59607;52.130;5.430;2023-06-22T01:23:20;102018.22;;;18.22;100.00
71774;BME280;59607;52.130;5.430;2023-06-22T01:26:18;102012.53;;;18.10;100.00
71774;BME280;59607;52.130;5.430;2023-06-22T01:28:54;102002.47;;;18.05;100.00
71774;BME280;59607;52.130;5.430;2023-06-22T01:31:26;102001.00;;;18.03;100.00
71774;BME280;59607;52.130;5.430;2023-06-22T01:34:01;102005.03;;;17.98;100.00
71774;BME280;59607;52.130;5.430;2023-06-22T01:36:35;102005.41;;;17.95;100.00
71774;BME280;59607;52.130;5.430;2023-06-22T01:39:05;102002.09;;;17.93;100.00
71774;BME280;59607;52.130;5.430;2023-06-22T01:41:37;102001.47;;;17.91;100.00
71774;BME280;59607;52.130;5.430;2023-06-22T01:44:06;102000.28;;;17.94;100.00
71774;BME280;59607;52.130;5.430;2023-06-22T01:46:35;102007.97;;;17.88;100.00
71774;BME280;59607;52.130;5.430;2023-06-22T01:49:05;102003.84;;;17.86;100.00
71774;BME280;59607;52.130;5.430;2023-06-22T01:51:38;101997.44;;;17.80;100.00
71774;BME280;59607;52.130;5.430;2023-06-22T01:54:14;101997.63;;;17.79;100.00
71774;BME280;59607;52.130;5.430;2023-06-22T01:56:43;101990.22;;;17.74;100.00
71774;BME280;59607;52.130;5.430;2023-06-22T01:59:30;101995.06;;;17.70;100.00
71774;BME280;59607;52.130;5.430;2023-06-22T02:02:09;102000.19;;;17.72;100.00
71774;BME280;59607;52.130;5.430;2023-06-22T02:04:59;101989.56;;;17.72;100.00
71774;BME280;59607;52.130;5.430;2023-06-22T02:07:34;101989.63;;;17.63;100.00
71774;BME280;59607;52.130;5.430;2023-06-22T02:10:11;101984.41;;;17.55;100.00
71774;BME280;59607;52.130;5.430;2023-06-22T02:12:43;101981.88;;;17.47;100.00
71774;BME280;59607;52.130;5.430;2023-06-22T02:15:18;101992.00;;;17.43;100.00
71774;BME280;59607;52.130;5.430;2023-06-22T02:17:44;101988.53;;;17.43;100.00
71774;BME280;59607;52.130;5.430;2023-06-22T02:20:15;101985.88;;;17.43;100.00
71774;BME280;59607;52.130;5.430;2023-06-22T02:22:42;101985.69;;;17.44;100.00
71774;BME280;59607;52.130;5.430;2023-06-22T02:25:11;101980.38;;;17.44;100.00
71774;BME280;59607;52.130;5.430;2023-06-22T02:27:40;101975.91;;;17.45;100.00
71774;BME280;59607;52.130;5.430;2023-06-22T02:30:10;101981.41;;;17.43;100.00
71774;BME280;59607;52.130;5.430;2023-06-22T02:32:43;101977.06;;;17.42;100.00
71774;BME280;59607;52.130;5.430;2023-06-22T02:35:09;101985.22;;;17.41;100.00
71774;BME280;59607;52.130;5.430;2023-06-22T02:37:45;101979.09;;;17.40;100.00
71774;BME280;59607;52.130;5.430;2023-06-22T02:40:13;101982.47;;;17.34;100.00
71774;BME280;59607;52.130;5.430;2023-06-22T02:42:40;101989.59;;;17.33;100.00
71774;BME280;59607;52.130;5.430;2023-06-22T02:45:09;101986.13;;;17.33;100.00
71774;BME280;59607;52.130;5.430;2023-06-22T02:47:36;101977.50;;;17.31;100.00
71774;BME280;59607;52.130;5.430;2023-06-22T02:50:13;101975.88;;;17.30;100.00
71774;BME280;59607;52.130;5.430;2023-06-22T02:52:46;101968.00;;;17.21;100.00
71774;BME280;59607;52.130;5.430;2023-06-22T02:55:16;101971.34;;;17.15;100.00
71774;BME280;59607;52.130;5.430;2023-06-22T02:57:42;101972.56;;;17.12;100.00
71774;BME280;59607;52.130;5.430;2023-06-22T03:00:12;101979.97;;;17.17;100.00
71774;BME280;59607;52.130;5.430;2023-06-22T03:02:44;101972.03;;;17.17;100.00
71774;BME280;59607;52.130;5.430;2023-06-22T03:05:21;101981.13;;;17.14;100.00
71774;BME280;59607;52.130;5.430;2023-06-22T03:07:48;101977.03;;;17.12;100.00
71774;BME280;59607;52.130;5.430;2023-06-22T03:10:15;101973.53;;;17.11;100.00
71774;BME280;59607;52.130;5.430;2023-06-22T03:12:43;101977.03;;;17.12;100.00
71774;BME280;59607;52.130;5.430;2023-06-22T03:15:12;101981.19;;;17.06;100.00
71774;BME280;59607;52.130;5.430;2023-06-22T03:17:53;101981.66;;;17.10;100.00
71774;BME280;59607;52.130;5.430;2023-06-22T03:20:30;101981.00;;;17.08;100.00
71774;BME280;59607;52.130;5.430;2023-06-22T03:23:00;101977.88;;;17.04;100.00
71774;BME280;59607;52.130;5.430;2023-06-22T03:25:31;101981.00;;;17.08;100.00
71774;BME280;59607;52.130;5.430;2023-06-22T03:27:57;101974.72;;;17.09;100.00
71774;BME280;59607;52.130;5.430;2023-06-22T03:30:26;101970.59;;;17.06;100.00
71774;BME280;59607;52.130;5.430;2023-06-22T03:32:56;101952.41;;;17.03;100.00
71774;BME280;59607;52.130;5.430;2023-06-22T03:35:23;101960.34;;;17.03;100.00
71774;BME280;59607;52.130;5.430;2023-06-22T03:37:49;101964.63;;;17.04;100.00
71774;BME280;59607;52.130;5.430;2023-06-22T03:40:19;101956.50;;;17.06;100.00
71774;BME280;59607;52.130;5.430;2023-06-22T03:42:45;101951.19;;;17.06;100.00
71774;BME280;59607;52.130;5.430;2023-06-22T03:45:22;101954.50;;;17.08;100.00
71774;BME280;59607;52.130;5.430;2023-06-22T03:47:49;101966.78;;;17.09;100.00
71774;BME280;59607;52.130;5.430;2023-06-22T03:50:19;101956.00;;;17.10;100.00
71774;BME280;59607;52.130;5.430;2023-06-22T03:52:54;101958.00;;;17.08;100.00
71774;BME280;59607;52.130;5.430;2023-06-22T03:55:23;101947.72;;;17.05;100.00
71774;BME280;59607;52.130;5.430;2023-06-22T03:57:51;101953.03;;;17.05;100.00
71774;BME280;59607;52.130;5.430;2023-06-22T04:00:19;101949.22;;;17.08;100.00
71774;BME280;59607;52.130;5.430;2023-06-22T04:03:00;101948.34;;;17.16;100.00
71774;BME280;59607;52.130;5.430;2023-06-22T04:05:34;101951.91;;;17.23;100.00
71774;BME280;59607;52.130;5.430;2023-06-22T04:08:08;101941.13;;;17.24;100.00
71774;BME280;59607;52.130;5.430;2023-06-22T04:10:38;101949.91;;;17.25;100.00
71774;BME280;59607;52.130;5.430;2023-06-22T04:13:07;101942.41;;;17.29;100.00
71774;BME280;59607;52.130;5.430;2023-06-22T04:15:36;101933.19;;;17.39;100.00
71774;BME280;59607;52.130;5.430;2023-06-22T04:18:03;101934.56;;;17.50;100.00
71774;BME280;59607;52.130;5.430;2023-06-22T04:20:34;101935.31;;;17.59;100.00
71774;BME280;59607;52.130;5.430;2023-06-22T04:23:03;101938.34;;;17.56;100.00
71774;BME280;59607;52.130;5.430;2023-06-22T04:25:29;101937.38;;;17.94;100.00
71774;BME280;59607;52.130;5.430;2023-06-22T04:28:00;101930.41;;;19.40;98.05
71774;BME280;59607;52.130;5.430;2023-06-22T04:30:29;101918.78;;;20.66;87.72
71774;BME280;59607;52.130;5.430;2023-06-22T04:32:57;101928.16;;;21.56;80.42
71774;BME280;59607;52.130;5.430;2023-06-22T04:35:24;101927.38;;;22.02;75.81
71774;BME280;59607;52.130;5.430;2023-06-22T04:37:57;101921.44;;;22.64;71.98
71774;BME280;59607;52.130;5.430;2023-06-22T04:40:27;101917.34;;;22.87;70.43
71774;BME280;59607;52.130;5.430;2023-06-22T04:42:55;101918.41;;;23.49;67.51
71774;BME280;59607;52.130;5.430;2023-06-22T04:45:28;101913.19;;;23.73;66.15
71774;BME280;59607;52.130;5.430;2023-06-22T04:48:01;101913.09;;;24.30;63.14
71774;BME280;59607;52.130;5.430;2023-06-22T04:50:31;101925.00;;;24.58;62.31
71774;BME280;59607;52.130;5.430;2023-06-22T04:52:58;101912.75;;;24.50;61.71
71774;BME280;59607;52.130;5.430;2023-06-22T04:55:26;101917.22;;;24.80;60.80
71774;BME280;59607;52.130;5.430;2023-06-22T04:57:54;101927.75;;;24.94;59.42
71774;BME280;59607;52.130;5.430;2023-06-22T05:00:20;101932.88;;;24.28;62.21
71774;BME280;59607;52.130;5.430;2023-06-22T05:02:49;101930.97;;;24.17;62.47
71774;BME280;59607;52.130;5.430;2023-06-22T05:05:19;101929.34;;;23.66;64.73
71774;BME280;59607;52.130;5.430;2023-06-22T05:07:46;101934.91;;;23.27;65.97
71774;BME280;59607;52.130;5.430;2023-06-22T05:10:26;101941.03;;;23.72;65.51
71774;BME280;59607;52.130;5.430;2023-06-22T05:12:56;101934.63;;;24.04;63.89
71774;BME280;59607;52.130;5.430;2023-06-22T05:15:26;101934.03;;;24.21;62.77
71774;BME280;59607;52.130;5.430;2023-06-22T05:18:13;101929.88;;;24.06;63.78
71774;BME280;59607;52.130;5.430;2023-06-22T05:20:46;101932.94;;;23.91;64.50
71774;BME280;59607;52.130;5.430;2023-06-22T05:23:12;101934.31;;;23.82;65.43
71774;BME280;59607;52.130;5.430;2023-06-22T05:25:39;101935.44;;;24.23;64.50
71774;BME280;59607;52.130;5.430;2023-06-22T05:28:08;101927.81;;;24.63;62.76
71774;BME280;59607;52.130;5.430;2023-06-22T05:30:37;101924.47;;;25.16;61.05
71774;BME280;59607;52.130;5.430;2023-06-22T05:33:13;101935.06;;;24.74;62.27
71774;BME280;59607;52.130;5.430;2023-06-22T05:35:41;101934.06;;;24.99;61.45
71774;BME280;59607;52.130;5.430;2023-06-22T05:38:08;101930.88;;;25.38;60.32
71774;BME280;59607;52.130;5.430;2023-06-22T05:40:34;101931.22;;;25.30;60.13
71774;BME280;59607;52.130;5.430;2023-06-22T05:43:01;101933.47;;;24.97;61.51
71774;BME280;59607;52.130;5.430;2023-06-22T05:45:29;101928.03;;;24.49;63.71
71774;BME280;59607;52.130;5.430;2023-06-22T05:47:59;101946.81;;;24.19;65.03
71774;BME280;59607;52.130;5.430;2023-06-22T05:50:25;101946.81;;;23.69;67.24
71774;BME280;59607;52.130;5.430;2023-06-22T05:52:54;101936.44;;;23.16;70.31
71774;BME280;59607;52.130;5.430;2023-06-22T05:55:24;101944.47;;;23.16;71.48
71774;BME280;59607;52.130;5.430;2023-06-22T05:57:51;101944.00;;;23.20;72.19
71774;BME280;59607;52.130;5.430;2023-06-22T06:00:22;101945.72;;;23.58;71.54
71774;BME280;59607;52.130;5.430;2023-06-22T06:02:51;101939.00;;;25.68;62.35
71774;BME280;59607;52.130;5.430;2023-06-22T06:05:21;101936.72;;;27.04;57.35
71774;BME280;59607;52.130;5.430;2023-06-22T06:07:49;101936.56;;;27.33;55.38
71774;BME280;59607;52.130;5.430;2023-06-22T06:10:15;101931.41;;;27.09;55.29
71774;BME280;59607;52.130;5.430;2023-06-22T06:12:42;101933.34;;;26.96;55.85
71774;BME280;59607;52.130;5.430;2023-06-22T06:15:23;101934.38;;;27.30;54.87
71774;BME280;59607;52.130;5.430;2023-06-22T06:18:06;101930.09;;;26.94;55.33
71774;BME280;59607;52.130;5.430;2023-06-22T06:20:44;101927.22;;;26.15;58.17
71774;BME280;59607;52.130;5.430;2023-06-22T06:23:11;101922.66;;;25.57;60.60
71774;BME280;59607;52.130;5.430;2023-06-22T06:25:40;101928.56;;;24.94;62.49
71774;BME280;59607;52.130;5.430;2023-06-22T06:28:08;101920.19;;;25.02;63.46
71774;BME280;59607;52.130;5.430;2023-06-22T06:30:42;101929.47;;;24.88;64.28
71774;BME280;59607;52.130;5.430;2023-06-22T06:33:09;101920.94;;;24.55;65.34
71774;BME280;59607;52.130;5.430;2023-06-22T06:35:45;101923.75;;;24.72;65.81
71774;BME280;59607;52.130;5.430;2023-06-22T06:38:12;101914.78;;;24.67;65.18
71774;BME280;59607;52.130;5.430;2023-06-22T06:40:41;101913.41;;;24.21;67.05
71774;BME280;59607;52.130;5.430;2023-06-22T06:43:08;101915.25;;;23.90;69.79
71774;BME280;59607;52.130;5.430;2023-06-22T06:45:34;101913.88;;;23.99;69.50
71774;BME280;59607;52.130;5.430;2023-06-22T06:48:02;101907.97;;;23.78;70.63
71774;BME280;59607;52.130;5.430;2023-06-22T06:50:32;101905.75;;;24.06;69.66
71774;BME280;59607;52.130;5.430;2023-06-22T06:52:59;101905.66;;;23.82;70.38
71774;BME280;59607;52.130;5.430;2023-06-22T06:55:29;101909.31;;;23.69;71.47
71774;BME280;59607;52.130;5.430;2023-06-22T06:58:01;101909.78;;;23.66;72.57
71774;BME280;59607;52.130;5.430;2023-06-22T07:00:36;101910.34;;;23.87;72.00
71774;BME280;59607;52.130;5.430;2023-06-22T07:03:04;101907.34;;;23.95;70.44
71774;BME280;59607;52.130;5.430;2023-06-22T07:05:31;101901.66;;;24.03;69.74
71774;BME280;59607;52.130;5.430;2023-06-22T07:08:03;101905.22;;;23.85;71.32
71774;BME280;59607;52.130;5.430;2023-06-22T07:10:33;101904.34;;;23.73;72.21
71774;BME280;59607;52.130;5.430;2023-06-22T07:13:00;101902.56;;;23.66;70.85
71774;BME280;59607;52.130;5.430;2023-06-22T07:15:28;101900.78;;;23.60;70.69
71774;BME280;59607;52.130;5.430;2023-06-22T07:17:55;101899.75;;;23.61;70.46
71774;BME280;59607;52.130;5.430;2023-06-22T07:20:22;101897.78;;;23.99;69.01
71774;BME280;59607;52.130;5.430;2023-06-22T07:22:48;101899.47;;;23.82;69.88
71774;BME280;59607;52.130;5.430;2023-06-22T07:25:15;101898.47;;;23.95;68.67
71774;BME280;59607;52.130;5.430;2023-06-22T07:27:46;101894.09;;;24.12;68.94
71774;BME280;59607;52.130;5.430;2023-06-22T07:30:22;101900.91;;;24.15;67.61
71774;BME280;59607;52.130;5.430;2023-06-22T07:32:53;101912.22;;;24.17;66.55
71774;BME280;59607;52.130;5.430;2023-06-22T07:35:20;101905.50;;;24.38;66.11
71774;BME280;59607;52.130;5.430;2023-06-22T07:37:48;101902.88;;;24.74;63.30
71774;BME280;59607;52.130;5.430;2023-06-22T07:40:20;101890.84;;;24.65;64.45
71774;BME280;59607;52.130;5.430;2023-06-22T07:42:48;101885.13;;;24.85;64.14
71774;BME280;59607;52.130;5.430;2023-06-22T07:45:17;101882.13;;;24.82;63.91
71774;BME280;59607;52.130;5.430;2023-06-22T07:47:47;101879.53;;;24.63;63.61
71774;BME280;59607;52.130;5.430;2023-06-22T07:50:14;101866.25;;;24.68;64.27
71774;BME280;59607;52.130;5.430;2023-06-22T07:52:44;101867.75;;;24.64;63.63
71774;BME280;59607;52.130;5.430;2023-06-22T07:55:10;101867.06;;;24.57;64.70
71774;BME280;59607;52.130;5.430;2023-06-22T07:57:39;101871.75;;;24.73;64.22
71774;BME280;59607;52.130;5.430;2023-06-22T08:00:08;101867.06;;;24.81;63.39
71774;BME280;59607;52.130;5.430;2023-06-22T08:02:44;101872.19;;;24.82;63.75
71774;BME280;59607;52.130;5.430;2023-06-22T08:05:11;101867.28;;;24.79;64.86
71774;BME280;59607;52.130;5.430;2023-06-22T08:07:58;101858.56;;;24.96;62.88
71774;BME280;59607;52.130;5.430;2023-06-22T08:10:24;101858.53;;;25.20;61.85
71774;BME280;59607;52.130;5.430;2023-06-22T08:12:57;101851.88;;;25.10;62.35
71774;BME280;59607;52.130;5.430;2023-06-22T08:15:26;101848.50;;;25.15;62.35
71774;BME280;59607;52.130;5.430;2023-06-22T08:17:53;101845.38;;;25.35;61.04
71774;BME280;59607;52.130;5.430;2023-06-22T08:20:27;101840.75;;;25.60;60.16
71774;BME280;59607;52.130;5.430;2023-06-22T08:22:56;101844.69;;;25.40;61.26
71774;BME280;59607;52.130;5.430;2023-06-22T08:25:28;101835.59;;;25.41;60.38
71774;BME280;59607;52.130;5.430;2023-06-22T08:27:55;101834.19;;;25.38;60.44
71774;BME280;59607;52.130;5.430;2023-06-22T08:30:25;101826.16;;;25.26;60.53
71774;BME280;59607;52.130;5.430;2023-06-22T08:32:51;101818.22;;;25.32;59.75
71774;BME280;59607;52.130;5.430;2023-06-22T08:35:22;101816.94;;;25.51;58.47
71774;BME280;59607;52.130;5.430;2023-06-22T08:37:48;101813.81;;;25.55;57.36
71774;BME280;59607;52.130;5.430;2023-06-22T08:40:31;101818.53;;;25.35;57.74
71774;BME280;59607;52.130;5.430;2023-06-22T08:42:58;101812.13;;;25.36;57.69
71774;BME280;59607;52.130;5.430;2023-06-22T08:45:27;101805.81;;;25.43;57.41
71774;BME280;59607;52.130;5.430;2023-06-22T08:47:57;101808.44;;;25.55;57.14
71774;BME280;59607;52.130;5.430;2023-06-22T08:50:25;101801.09;;;25.96;56.66
71774;BME280;59607;52.130;5.430;2023-06-22T08:53:06;101806.56;;;26.19;54.20
71774;BME280;59607;52.130;5.430;2023-06-22T08:55:40;101803.22;;;26.29;54.96
71774;BME280;59607;52.130;5.430;2023-06-22T08:58:07;101800.28;;;26.47;54.50
71774;BME280;59607;52.130;5.430;2023-06-22T09:00:34;101797.81;;;26.63;53.83
71774;BME280;59607;52.130;5.430;2023-06-22T09:03:01;101803.97;;;26.41;53.64
71774;BME280;59607;52.130;5.430;2023-06-22T09:05:28;101804.53;;;26.43;51.92
71774;BME280;59607;52.130;5.430;2023-06-22T09:07:59;101802.16;;;26.30;51.60
71774;BME280;59607;52.130;5.430;2023-06-22T09:10:26;101806.03;;;26.34;48.95
71774;BME280;59607;52.130;5.430;2023-06-22T09:12:53;101797.25;;;26.61;48.17
71774;BME280;59607;52.130;5.430;2023-06-22T09:15:22;101797.44;;;26.77;47.65
71774;BME280;59607;52.130;5.430;2023-06-22T09:17:49;101795.25;;;26.96;47.33
71774;BME280;59607;52.130;5.430;2023-06-22T09:20:16;101797.53;;;27.27;48.40
71774;BME280;59607;52.130;5.430;2023-06-22T09:22:46;101791.41;;;27.37;48.81
71774;BME280;59607;52.130;5.430;2023-06-22T09:25:13;101790.09;;;27.39;49.01
71774;BME280;59607;52.130;5.430;2023-06-22T09:27:39;101795.06;;;27.53;49.61
71774;BME280;59607;52.130;5.430;2023-06-22T09:30:12;101792.16;;;27.87;49.10
71774;BME280;59607;52.130;5.430;2023-06-22T09:32:47;101794.81;;;27.54;49.01
71774;BME280;59607;52.130;5.430;2023-06-22T09:35:14;101792.34;;;27.75;49.37
71774;BME280;59607;52.130;5.430;2023-06-22T09:37:40;101795.56;;;27.72;46.29
71774;BME280;59607;52.130;5.430;2023-06-22T09:40:07;101797.81;;;27.58;48.06
71774;BME280;59607;52.130;5.430;2023-06-22T09:42:42;101793.19;;;27.81;47.78
71774;BME280;59607;52.130;5.430;2023-06-22T09:45:09;101786.97;;;27.75;46.99
71774;BME280;59607;52.130;5.430;2023-06-22T09:47:40;101787.22;;;27.79;48.62
71774;BME280;59607;52.130;5.430;2023-06-22T09:50:07;101784.63;;;27.89;48.40
71774;BME280;59607;52.130;5.430;2023-06-22T09:52:34;101779.66;;;27.76;48.54
71774;BME280;59607;52.130;5.430;2023-06-22T09:55:14;101779.50;;;27.88;48.72
71774;BME280;59607;52.130;5.430;2023-06-22T09:57:50;101783.69;;;27.45;49.25
71774;BME280;59607;52.130;5.430;2023-06-22T10:00:17;101774.63;;;27.57;49.23
71774;BME280;59607;52.130;5.430;2023-06-22T10:02:52;101778.63;;;27.49;48.99
71774;BME280;59607;52.130;5.430;2023-06-22T10:05:19;101778.50;;;27.39;49.10
71774;BME280;59607;52.130;5.430;2023-06-22T10:07:46;101785.94;;;27.26;49.48
71774;BME280;59607;52.130;5.430;2023-06-22T10:10:13;101783.28;;;27.04;49.30
71774;BME280;59607;52.130;5.430;2023-06-22T10:13:07;101790.00;;;26.84;50.44
71774;BME280;59607;52.130;5.430;2023-06-22T10:15:39;101786.22;;;26.85;49.97
71774;BME280;59607;52.130;5.430;2023-06-22T10:18:06;101770.22;;;26.73;50.28
71774;BME280;59607;52.130;5.430;2023-06-22T10:20:36;101780.28;;;26.60;49.82
71774;BME280;59607;52.130;5.430;2023-06-22T10:23:04;101779.44;;;26.37;49.67
71774;BME280;59607;52.130;5.430;2023-06-22T10:25:30;101786.44;;;26.21;50.53
71774;BME280;59607;52.130;5.430;2023-06-22T10:27:58;101774.38;;;26.07;50.80
71774;BME280;59607;52.130;5.430;2023-06-22T10:30:27;101781.66;;;26.06;50.82
71774;BME280;59607;52.130;5.430;2023-06-22T10:32:55;101784.31;;;25.89;51.44
71774;BME280;59607;52.130;5.430;2023-06-22T10:35:36;101776.59;;;25.75;51.50
71774;BME280;59607;52.130;5.430;2023-06-22T10:38:10;101783.78;;;25.87;51.48
71774;BME280;59607;52.130;5.430;2023-06-22T10:40:36;101786.44;;;25.87;51.88
71774;BME280;59607;52.130;5.430;2023-06-22T10:43:09;101783.91;;;25.80;51.78
71774;BME280;59607;52.130;5.430;2023-06-22T10:45:39;101787.50;;;25.69;51.77
71774;BME280;59607;52.130;5.430;2023-06-22T10:48:15;101782.94;;;25.69;52.05
71774;BME280;59607;52.130;5.430;2023-06-22T10:50:42;101781.06;;;25.87;51.66
71774;BME280;59607;52.130;5.430;2023-06-22T10:53:08;101781.22;;;25.97;51.96
71774;BME280;59607;52.130;5.430;2023-06-22T10:55:41;101785.06;;;26.02;51.63
71774;BME280;59607;52.130;5.430;2023-06-22T10:58:24;101782.28;;;25.96;51.63
71774;BME280;59607;52.130;5.430;2023-06-22T11:00:57;101784.25;;;25.84;52.32
71774;BME280;59607;52.130;5.430;2023-06-22T11:03:29;101785.47;;;25.93;51.68
71774;BME280;59607;52.130;5.430;2023-06-22T11:06:01;101779.75;;;25.90;52.38
71774;BME280;59607;52.130;5.430;2023-06-22T11:08:30;101772.59;;;25.95;52.30
71774;BME280;59607;52.130;5.430;2023-06-22T11:11:02;101777.97;;;26.12;51.73
71774;BME280;59607;52.130;5.430;2023-06-22T11:13:29;101765.31;;;26.30;51.29
71774;BME280;59607;52.130;5.430;2023-06-22T11:15:55;101772.50;;;26.42;51.29
71774;BME280;59607;52.130;5.430;2023-06-22T11:18:22;101763.63;;;26.41;51.51
71774;BME280;59607;52.130;5.430;2023-06-22T11:20:54;101768.25;;;26.29;51.91
71774;BME280;59607;52.130;5.430;2023-06-22T11:23:20;101762.41;;;26.32;51.61
71774;BME280;59607;52.130;5.430;2023-06-22T11:25:55;101769.56;;;26.43;51.73
71774;BME280;59607;52.130;5.430;2023-06-22T11:28:22;101760.75;;;26.48;51.44
71774;BME280;59607;52.130;5.430;2023-06-22T11:30:49;101759.06;;;26.42;51.37
71774;BME280;59607;52.130;5.430;2023-06-22T11:33:16;101763.63;;;26.41;51.74
71774;BME280;59607;52.130;5.430;2023-06-22T11:35:46;101759.38;;;26.45;52.23
71774;BME280;59607;52.130;5.430;2023-06-22T11:38:12;101750.59;;;26.33;52.08
71774;BME280;59607;52.130;5.430;2023-06-22T11:40:46;101738.72;;;26.51;51.88
71774;BME280;59607;52.130;5.430;2023-06-22T11:43:12;101739.41;;;26.64;54.22
71774;BME280;59607;52.130;5.430;2023-06-22T11:45:47;101735.47;;;26.49;55.49
71774;BME280;59607;52.130;5.430;2023-06-22T11:48:13;101732.09;;;26.36;55.65
71774;BME280;59607;52.130;5.430;2023-06-22T11:50:40;101729.78;;;26.28;55.84
71774;BME280;59607;52.130;5.430;2023-06-22T11:53:12;101733.09;;;26.13;55.27
71774;BME280;59607;52.130;5.430;2023-06-22T11:55:48;101733.06;;;26.30;55.26
71774;BME280;59607;52.130;5.430;2023-06-22T11:58:19;101731.50;;;26.34;54.54
71774;BME280;59607;52.130;5.430;2023-06-22T12:00:45;101729.72;;;26.23;54.67
71774;BME280;59607;52.130;5.430;2023-06-22T12:03:21;101731.59;;;26.22;54.66
71774;BME280;59607;52.130;5.430;2023-06-22T12:05:53;101729.75;;;26.06;55.18
71774;BME280;59607;52.130;5.430;2023-06-22T12:08:22;101736.03;;;26.11;54.83
71774;BME280;59607;52.130;5.430;2023-06-22T12:10:50;101729.00;;;26.10;55.88
71774;BME280;59607;52.130;5.430;2023-06-22T12:13:16;101718.50;;;26.09;56.12
71774;BME280;59607;52.130;5.430;2023-06-22T12:15:47;101720.69;;;26.12;56.02
71774;BME280;59607;52.130;5.430;2023-06-22T12:18:15;101715.47;;;26.22;56.18
71774;BME280;59607;52.130;5.430;2023-06-22T12:20:51;101717.13;;;26.06;56.05
71774;BME280;59607;52.130;5.430;2023-06-22T12:23:17;101716.97;;;25.96;57.48
71774;BME280;59607;52.130;5.430;2023-06-22T12:25:49;101714.44;;;25.89;57.86
71774;BME280;59607;52.130;5.430;2023-06-22T12:28:16;101714.38;;;25.67;59.37
71774;BME280;59607;52.130;5.430;2023-06-22T12:30:45;101722.00;;;25.58;61.37
71774;BME280;59607;52.130;5.430;2023-06-22T12:33:12;101716.88;;;25.56;61.79
71774;BME280;59607;52.130;5.430;2023-06-22T12:35:38;101715.97;;;25.50;66.22
71774;BME280;59607;52.130;5.430;2023-06-22T12:38:08;101709.22;;;25.48;65.75
71774;BME280;59607;52.130;5.430;2023-06-22T12:40:38;101707.56;;;25.47;62.29
71774;BME280;59607;52.130;5.430;2023-06-22T12:43:08;101713.28;;;25.50;64.61
71774;BME280;59607;52.130;5.430;2023-06-22T12:45:38;101711.91;;;25.48;65.65
71774;BME280;59607;52.130;5.430;2023-06-22T12:48:06;101709.28;;;25.36;63.29
71774;BME280;59607;52.130;5.430;2023-06-22T12:50:38;101700.56;;;25.46;62.77
71774;BME280;59607;52.130;5.430;2023-06-22T12:53:05;101697.66;;;25.47;62.73
71774;BME280;59607;52.130;5.430;2023-06-22T12:55:32;101702.28;;;25.35;62.46
71774;BME280;59607;52.130;5.430;2023-06-22T12:58:03;101697.94;;;25.34;61.53
71774;BME280;59607;52.130;5.430;2023-06-22T13:00:29;101695.34;;;25.22;60.19
71774;BME280;59607;52.130;5.430;2023-06-22T13:02:56;101695.03;;;25.06;61.11
71774;BME280;59607;52.130;5.430;2023-06-22T13:05:26;101691.88;;;25.09;61.23